Time;durP1;ratioP1;P1;durP2;ratioP2;P2;SDS_P1;SDS_P2;PMS_P1;PMS_P2;Temp;Humidity;BMP_temperature;BMP_pressure;BME280_temperature;BME280_humidity;BME280_pressure;Samples;Min_cycle;Max_cycle;Signal;HPM_P1;HPM_P2
2021/01/09 00:00:03;;;;;;;;;;;;;;;;;;4391740;32;19977;-73
2021/01/09 00:02:29;;;;;;;;;;;;;;;;;;4390944;32;19974;-72
2021/01/09 00:04:55;;;;;;;;;;;;;;;;;;4391953;32;19990;-74
2021/01/09 00:07:20;;;;;;;;;;;;;;;;;;4391939;32;19988;-72
2021/01/09 00:09:46;;;;;;;;;;;;;;;;;;4392228;32;20066;-73
2021/01/09 00:12:11;;;;;;;;;;;;;;;;;;4378258;32;20054;-72
2021/01/09 00:14:37;;;;;;;;;;;;;;;;;;4377853;32;19980;-73
2021/01/09 00:17:03;;;;;;;;;;;;;;;;;;4377758;32;20388;-73
2021/01/09 00:19:29;;;;;;;;;;;;;;;;;;4391838;32;20036;-72
2021/01/09 00:21:54;;;;;;;;;;;;;;;;;;4390202;32;20005;-72
2021/01/09 00:24:20;;;;;;;;;;;;;;;;;;4390391;32;20430;-73
2021/01/09 00:26:45;;;;;;;;;;;;;;;;;;4390271;32;20056;-73
2021/01/09 00:29:11;;;;;;;;;;;;;;;;;;4377920;32;20441;-72
2021/01/09 00:31:36;;;;;;;;;;;;;;;;;;4392273;32;20058;-73
2021/01/09 00:34:02;;;;;;;;;;;;;;;;;;4378383;32;20386;-73
2021/01/09 00:36:28;;;;;;;;;;;;;;;;;;4362663;32;20134;-72
2021/01/09 00:38:53;;;;;;;;;;;;;;;;;;4375515;32;20054;-72
2021/01/09 00:41:29;;;;;;;;;;;;;;;;;;4375378;32;20426;-73
2021/01/09 00:43:54;;;;;;;;;;;;;;;;;;4362823;32;20400;-72
2021/01/09 00:46:20;;;;;;;;;;;;;;;;;;4376887;32;19982;-72
2021/01/09 00:48:45;;;;;;;;;;;;;;;;;;4374875;32;20055;-72
2021/01/09 00:51:12;;;;;;;;;;;;;;;;;;4375004;32;19997;-72
2021/01/09 00:53:38;;;;;;;;;;;;;;;;;;4362972;32;20005;-73
2021/01/09 00:56:03;;;;;;;;;;;;;;;;;;4375049;32;20405;-73
2021/01/09 00:58:29;;;;;;;;;;;;;;;;;;4362546;32;20432;-72
2021/01/09 01:00:54;;;;;;;;;;;;;;;;;;4362560;32;19975;-72
2021/01/09 01:03:20;;;;;;;;;;;;;;;;;;4377070;32;19997;-72
2021/01/09 01:05:45;;;;;;;;;;;;;;;;;;4365418;32;19978;-72
2021/01/09 01:08:11;;;;;;;;;;;;;;;;;;4379686;32;20441;-72
2021/01/09 01:10:36;;;;;;;;;;;;;;;;;;4379400;32;19974;-73
2021/01/09 01:13:02;;;;;;;;;;;;;;;;;;4377875;32;20430;-73
2021/01/09 01:15:28;;;;;;;;;;;;;;;;;;4379169;32;20345;-71
2021/01/09 01:17:53;;;;;;;;;;;;;;;;;;4378472;32;20001;-73
2021/01/09 01:20:19;;;;;;;;;;;;;;;;;;4377448;32;19990;-72
2021/01/09 01:22:44;;;;;;;;;;;;;;;;;;4378975;32;19978;-72
2021/01/09 01:25:10;;;;;;;;;;;;;;;;;;4377654;32;19970;-73
2021/01/09 01:27:36;;;;;;;;;;;;;;;;;;4365333;32;19974;-73
2021/01/09 01:30:02;;;;;;;;;;;;;;;;;;4379420;32;20132;-72
2021/01/09 01:32:27;;;;;;;;;;;;;;;;;;4379500;32;20000;-72
2021/01/09 01:34:53;;;;;;;;;;;;;;;;;;4379902;32;20360;-74
2021/01/09 01:37:18;;;;;;;;;;;;;;;;;;4392493;32;20355;-72
2021/01/09 01:39:44;;;;;;;;;;;;;;;;;;4379796;32;20009;-72
2021/01/09 01:42:09;;;;;;;;;;;;;;;;;;4392232;32;20055;-72
2021/01/09 01:44:35;;;;;;;;;;;;;;;;;;4393968;32;20062;-72
2021/01/09 01:47:01;;;;;;;;;;;;;;;;;;4392864;32;20049;-72
2021/01/09 01:49:27;;;;;;;;;;;;;;;;;;4379901;32;19980;-73
2021/01/09 01:51:52;;;;;;;;;;;;;;;;;;4392440;32;20009;-72
2021/01/09 01:54:19;;;;;;;;;;;;;;;;;;4380005;32;19974;-72
2021/01/09 01:56:46;;;;;;;;;;;;;;;;;;4367237;32;19962;-73
2021/01/09 01:59:12;;;;;;;;;;;;;;;;;;4379529;32;19962;-72
2021/01/09 02:01:38;;;;;;;;;;;;;;;;;;4366955;32;20085;-72
2021/01/09 02:04:04;;;;;;;;;;;;;;;;;;4367333;32;19989;-72
2021/01/09 02:06:30;;;;;;;;;;;;;;;;;;4366691;32;19978;-71
2021/01/09 02:09:09;;;;;;;;;;;;;;;;;;4392401;32;19984;-73
2021/01/09 02:11:44;;;;;;;;;;;;;;;;;;4379317;32;19981;-72
2021/01/09 02:14:30;;;;;;;;;;;;;;;;;;4366984;32;19985;-73
2021/01/09 02:16:55;;;;;;;;;;;;;;;;;;4378465;32;19973;-73
2021/01/09 02:19:22;;;;;;;;;;;;;;;;;;4379543;32;20111;-73
2021/01/09 02:21:47;;;;;;;;;;;;;;;;;;4379304;32;20392;-73
2021/01/09 02:24:13;;;;;;;;;;;;;;;;;;4391764;32;20074;-73
2021/01/09 02:26:39;;;;;;;;;;;;;;;;;;4379503;32;19988;-73
2021/01/09 02:29:05;;;;;;;;;;;;;;;;;;4379314;32;19967;-73
2021/01/09 02:31:31;;;;;;;;;;;;;;;;;;4393506;32;20396;-73
2021/01/09 02:33:57;;;;;;;;;;;;;;;;;;4376306;32;19986;-73
2021/01/09 02:36:22;;;;;;;;;;;;;;;;;;4364113;32;20063;-73
2021/01/09 02:38:48;;;;;;;;;;;;;;;;;;4376773;32;19998;-73
2021/01/09 02:41:13;;;;;;;;;;;;;;;;;;4376297;32;20454;-73
2021/01/09 02:43:39;;;;;;;;;;;;;;;;;;4364002;32;20380;-72
2021/01/09 02:46:04;;;;;;;;;;;;;;;;;;4378124;32;19985;-73
2021/01/09 02:48:30;;;;;;;;;;;;;;;;;;4384472;32;20053;-73
2021/01/09 02:50:55;;;;;;;;;;;;;;;;;;4392791;32;20368;-72
2021/01/09 02:53:21;;;;;;;;;;;;;;;;;;4392816;32;20403;-73
2021/01/09 02:55:46;;;;;;;;;;;;;;;;;;4366761;32;20392;-73
2021/01/09 02:58:12;;;;;;;;;;;;;;;;;;4392619;32;20385;-74
2021/01/09 03:00:37;;;;;;;;;;;;;;;;;;4392744;32;19989;-72
2021/01/09 03:03:03;;;;;;;;;;;;;;;;;;4391527;32;19981;-73
2021/01/09 03:05:29;;;;;;;;;;;;;;;;;;4392320;32;20053;-72
2021/01/09 03:07:54;;;;;;;;;;;;;;;;;;4393044;32;20049;-72
2021/01/09 03:10:20;;;;;;;;;;;;;;;;;;4391820;32;20069;-72
2021/01/09 03:12:45;;;;;;;;;;;;;;;;;;4391018;32;19997;-73
2021/01/09 03:15:11;;;;;;;;;;;;;;;;;;4391332;32;20356;-72
2021/01/09 03:17:36;;;;;;;;;;;;;;;;;;4390753;32;19982;-71
2021/01/09 03:20:02;;;;;;;;;;;;;;;;;;4391684;32;20011;-73
2021/01/09 03:22:28;;;;;;;;;;;;;;;;;;4378583;32;19978;-72
2021/01/09 03:24:53;;;;;;;;;;;;;;;;;;4378454;32;20432;-72
2021/01/09 03:27:19;;;;;;;;;;;;;;;;;;4390401;32;19985;-73
2021/01/09 03:29:44;;;;;;;;;;;;;;;;;;4366182;32;19981;-73
2021/01/09 03:32:10;;;;;;;;;;;;;;;;;;4392166;32;19993;-72
2021/01/09 03:34:35;;;;;;;;;;;;;;;;;;4392409;32;19998;-73
2021/01/09 03:37:01;;;;;;;;;;;;;;;;;;4377997;32;20379;-72
2021/01/09 03:39:26;;;;;;;;;;;;;;;;;;4378580;32;19990;-73
2021/01/09 03:41:52;;;;;;;;;;;;;;;;;;4392105;32;20049;-72
2021/01/09 03:44:17;;;;;;;;;;;;;;;;;;4392536;32;20136;-72
2021/01/09 03:46:43;;;;;;;;;;;;;;;;;;4392217;32;20454;-72
2021/01/09 03:49:08;;;;;;;;;;;;;;;;;;4380424;32;19978;-72
2021/01/09 03:51:34;;;;;;;;;;;;;;;;;;4376985;32;19993;-72
2021/01/09 03:53:59;;;;;;;;;;;;;;;;;;4376615;32;19986;-73
2021/01/09 03:56:25;;;;;;;;;;;;;;;;;;4376982;32;20063;-72
2021/01/09 03:58:50;;;;;;;;;;;;;;;;;;4363421;32;20063;-72
2021/01/09 04:01:16;;;;;;;;;;;;;;;;;;4375361;32;19974;-73
2021/01/09 04:03:41;;;;;;;;;;;;;;;;;;4363305;32;19993;-72
2021/01/09 04:06:07;;;;;;;;;;;;;;;;;;4376761;32;19990;-72
2021/01/09 04:08:33;;;;;;;;;;;;;;;;;;4375267;32;20094;-73
2021/01/09 04:10:58;;;;;;;;;;;;;;;;;;4375159;32;19970;-72
2021/01/09 04:13:24;;;;;;;;;;;;;;;;;;4375429;32;20006;-72
2021/01/09 04:15:49;;;;;;;;;;;;;;;;;;4376740;32;19977;-73
2021/01/09 04:18:15;;;;;;;;;;;;;;;;;;4374864;32;19973;-73
2021/01/09 04:20:40;;;;;;;;;;;;;;;;;;4375851;32;20001;-72
2021/01/09 04:23:06;;;;;;;;;;;;;;;;;;4375501;32;19993;-72
2021/01/09 04:25:33;;;;;;;;;;;;;;;;;;4376848;32;20064;-73
2021/01/09 04:27:59;;;;;;;;;;;;;;;;;;4350565;32;20005;-72
2021/01/09 04:30:24;;;;;;;;;;;;;;;;;;4375355;32;19989;-72
2021/01/09 04:32:50;;;;;;;;;;;;;;;;;;4379191;32;19981;-72
2021/01/09 04:35:15;;;;;;;;;;;;;;;;;;4391726;32;19990;-72
2021/01/09 04:37:41;;;;;;;;;;;;;;;;;;4389785;32;19978;-73
2021/01/09 04:40:07;;;;;;;;;;;;;;;;;;4394322;32;20066;-73
2021/01/09 04:42:33;;;;;;;;;;;;;;;;;;4393728;32;19993;-73
2021/01/09 04:44:59;;;;;;;;;;;;;;;;;;4368070;32;20461;-73
2021/01/09 04:47:24;;;;;;;;;;;;;;;;;;4392189;32;20042;-73
2021/01/09 04:49:50;;;;;;;;;;;;;;;;;;4378620;32;20002;-73
2021/01/09 04:52:15;;;;;;;;;;;;;;;;;;4366039;32;19982;-72
2021/01/09 04:54:41;;;;;;;;;;;;;;;;;;4365492;32;20045;-73
2021/01/09 04:57:08;;;;;;;;;;;;;;;;;;4379214;32;19987;-73
2021/01/09 04:59:34;;;;;;;;;;;;;;;;;;4377877;32;19998;-73
2021/01/09 05:02:00;;;;;;;;;;;;;;;;;;4365708;32;20409;-72
2021/01/09 05:04:25;;;;;;;;;;;;;;;;;;4378362;32;19986;-73
2021/01/09 05:06:51;;;;;;;;;;;;;;;;;;4378177;32;19986;-73
2021/01/09 05:09:16;;;;;;;;;;;;;;;;;;4378948;32;20400;-73
2021/01/09 05:11:42;;;;;;;;;;;;;;;;;;4364972;32;20375;-72
2021/01/09 05:14:08;;;;;;;;;;;;;;;;;;4378222;32;19981;-73
2021/01/09 05:16:33;;;;;;;;;;;;;;;;;;4377958;32;20442;-68
2021/01/09 05:18:59;;;;;;;;;;;;;;;;;;4378092;32;19979;-70
2021/01/09 05:21:26;;;;;;;;;;;;;;;;;;4365629;32;19974;-69
2021/01/09 05:23:59;;;;;;;;;;;;;;;;;;4365047;32;20008;-68
2021/01/09 05:26:24;;;;;;;;;;;;;;;;;;4378720;32;19986;-70
2021/01/09 05:28:59;;;;;;;;;;;;;;;;;;4364909;32;20373;-70
2021/01/09 05:31:25;;;;;;;;;;;;;;;;;;4364555;32;19974;-69
2021/01/09 05:33:51;;;;;;;;;;;;;;;;;;4375433;32;19973;-70
2021/01/09 05:36:17;;;;;;;;;;;;;;;;;;4392755;32;20074;-69
2021/01/09 05:38:43;;;;;;;;;;;;;;;;;;4366942;32;19986;-69
2021/01/09 05:41:09;;;;;;;;;;;;;;;;;;4392346;32;19988;-68
2021/01/09 05:43:35;;;;;;;;;;;;;;;;;;4380305;32;19981;-69
2021/01/09 05:46:01;;;;;;;;;;;;;;;;;;4392300;32;19973;-70
2021/01/09 05:48:30;;;;;;;;;;;;;;;;;;4384302;32;19978;-70
2021/01/09 05:50:55;;;;;;;;;;;;;;;;;;4364127;32;19974;-69
2021/01/09 05:53:41;;;;;;;;;;;;;;;;;;4377333;32;19989;-68
2021/01/09 05:56:07;;;;;;;;;;;;;;;;;;4364376;32;20039;-71
2021/01/09 05:58:33;;;;;;;;;;;;;;;;;;4364260;32;19966;-69
2021/01/09 06:00:59;;;;;;;;;;;;;;;;;;4377084;32;19974;-68
2021/01/09 06:03:38;;;;;;;;;;;;;;;;;;4364926;32;19982;-69
2021/01/09 06:06:05;;;;;;;;;;;;;;;;;;4364415;32;20058;-69
2021/01/09 06:08:30;;;;;;;;;;;;;;;;;;4364501;32;20062;-68
2021/01/09 06:10:56;;;;;;;;;;;;;;;;;;4376694;32;19993;-66
2021/01/09 06:13:22;;;;;;;;;;;;;;;;;;4376973;32;20062;-68
2021/01/09 06:15:47;;;;;;;;;;;;;;;;;;4364286;32;19989;-68
2021/01/09 06:18:13;;;;;;;;;;;;;;;;;;4376283;32;20352;-68
2021/01/09 06:20:38;;;;;;;;;;;;;;;;;;4351428;32;20442;-68
2021/01/09 06:23:04;;;;;;;;;;;;;;;;;;4376821;32;19982;-68
2021/01/09 06:25:29;;;;;;;;;;;;;;;;;;4363888;32;20376;-66
2021/01/09 06:27:56;;;;;;;;;;;;;;;;;;4364270;32;20360;-70
2021/01/09 06:30:21;;;;;;;;;;;;;;;;;;4364113;32;19974;-71
2021/01/09 06:32:56;;;;;;;;;;;;;;;;;;4380171;32;19974;-70
2021/01/09 06:35:22;;;;;;;;;;;;;;;;;;4391682;32;19977;-72
2021/01/09 06:37:47;;;;;;;;;;;;;;;;;;4392677;32;19964;-71
2021/01/09 06:40:13;;;;;;;;;;;;;;;;;;4392995;32;19982;-70
2021/01/09 06:42:39;;;;;;;;;;;;;;;;;;4379140;32;19985;-70
2021/01/09 06:45:05;;;;;;;;;;;;;;;;;;4391617;32;19970;-70
2021/01/09 06:47:30;;;;;;;;;;;;;;;;;;4378973;32;20002;-70
2021/01/09 06:50:14;;;;;;;;;;;;;;;;;;4391500;32;20376;-69
2021/01/09 06:52:52;;;;;;;;;;;;;;;;;;4391950;32;19986;-67
2021/01/09 06:55:36;;;;;;;;;;;;;;;;;;4392559;32;20445;-68
2021/01/09 06:58:05;;;;;;;;;;;;;;;;;;4393486;32;20377;-70
2021/01/09 07:00:31;;;;;;;;;;;;;;;;;;4392036;32;19985;-69
2021/01/09 07:03:28;;;;;;;;;;;;;;;;;;4392800;32;19989;-67
2021/01/09 07:05:54;;;;;;;;;;;;;;;;;;4338098;32;19981;-68
2021/01/09 07:08:20;;;;;;;;;;;;;;;;;;4390850;32;20017;-68
2021/01/09 07:10:58;;;;;;;;;;;;;;;;;;4392713;32;20507;-69
2021/01/09 07:13:24;;;;;;;;;;;;;;;;;;4378343;32;20001;-67
2021/01/09 07:16:09;;;;;;;;;;;;;;;;;;4392651;32;20078;-65
2021/01/09 07:18:38;;;;;;;;;;;;;;;;;;4365963;32;19973;-66
2021/01/09 07:21:05;;;;;;;;;;;;;;;;;;4366168;32;20384;-65
2021/01/09 07:23:30;;;;;;;;;;;;;;;;;;4378310;32;20396;-66
2021/01/09 07:25:56;;;;;;;;;;;;;;;;;;4378671;32;19970;-67
2021/01/09 07:28:22;;;;;;;;;;;;;;;;;;4391013;32;19978;-67
2021/01/09 07:30:49;;;;;;;;;;;;;;;;;;4378116;32;19992;-68
2021/01/09 07:33:14;;;;;;;;;;;;;;;;;;4375346;32;19977;-71
2021/01/09 07:35:41;;;;;;;;;;;;;;;;;;4375759;32;19998;-66
2021/01/09 07:38:06;;;;;;;;;;;;;;;;;;4351105;32;19980;-66
2021/01/09 07:40:33;;;;;;;;;;;;;;;;;;4375669;32;19985;-66
2021/01/09 07:42:59;;;;;;;;;;;;;;;;;;4350359;32;19997;-69
2021/01/09 07:45:29;;;;;;;;;;;;;;;;;;4363025;32;20396;-71
2021/01/09 07:47:55;;;;;;;;;;;;;;;;;;4375630;32;20613;-69
2021/01/09 07:50:20;;;;;;;;;;;;;;;;;;4377329;32;20013;-68
2021/01/09 07:52:46;;;;;;;;;;;;;;;;;;4362932;32;20139;-69
2021/01/09 07:55:15;;;;;;;;;;;;;;;;;;4375437;32;19984;-69
2021/01/09 07:57:41;;;;;;;;;;;;;;;;;;4363000;32;20384;-70
2021/01/09 08:00:13;;;;;;;;;;;;;;;;;;4375906;32;19982;-67
2021/01/09 08:02:40;;;;;;;;;;;;;;;;;;4350299;32;20397;-68
2021/01/09 08:05:16;;;;;;;;;;;;;;;;;;4350730;32;20001;-68
2021/01/09 08:07:45;;;;;;;;;;;;;;;;;;4374983;32;19973;-68
2021/01/09 08:10:24;;;;;;;;;;;;;;;;;;4375784;32;19974;-69
2021/01/09 08:13:09;;;;;;;;;;;;;;;;;;4350129;32;19975;-69
2021/01/09 08:15:35;;;;;;;;;;;;;;;;;;4375293;32;20041;-70
2021/01/09 08:18:01;;;;;;;;;;;;;;;;;;4362585;32;19990;-69
2021/01/09 08:20:27;;;;;;;;;;;;;;;;;;4362847;32;20061;-71
2021/01/09 08:22:52;;;;;;;;;;;;;;;;;;4377124;32;19981;-69
2021/01/09 08:25:18;;;;;;;;;;;;;;;;;;4381006;32;19988;-68
2021/01/09 08:27:45;;;;;;;;;;;;;;;;;;4381010;32;19978;-69
2021/01/09 08:30:11;;;;;;;;;;;;;;;;;;4379647;32;19985;-70
2021/01/09 08:32:37;;;;;;;;;;;;;;;;;;4382146;32;20078;-69
2021/01/09 08:35:02;;;;;;;;;;;;;;;;;;4379230;32;20115;-65
2021/01/09 08:37:29;;;;;;;;;;;;;;;;;;4392459;32;19981;-67
2021/01/09 08:39:55;;;;;;;;;;;;;;;;;;4378535;32;20487;-66
2021/01/09 08:42:20;;;;;;;;;;;;;;;;;;4390385;32;19985;-70
2021/01/09 08:44:47;;;;;;;;;;;;;;;;;;4377719;32;19985;-66
2021/01/09 08:47:16;;;;;;;;;;;;;;;;;;4365301;32;20071;-68
2021/01/09 08:49:45;;;;;;;;;;;;;;;;;;4375303;32;19986;-69
2021/01/09 08:52:11;;;;;;;;;;;;;;;;;;4362504;32;19980;-68
2021/01/09 08:54:37;;;;;;;;;;;;;;;;;;4349906;32;19970;-67
2021/01/09 08:57:03;;;;;;;;;;;;;;;;;;4350456;32;19970;-65
2021/01/09 08:59:29;;;;;;;;;;;;;;;;;;4362816;32;19984;-69
2021/01/09 09:02:00;;;;;;;;;;;;;;;;;;4375131;32;19982;-68
2021/01/09 09:04:25;;;;;;;;;;;;;;;;;;4362480;32;19985;-69
2021/01/09 09:06:58;;;;;;;;;;;;;;;;;;4374966;32;19997;-69
2021/01/09 09:09:24;;;;;;;;;;;;;;;;;;4362431;32;19985;-68
2021/01/09 09:11:50;;;;;;;;;;;;;;;;;;4375748;32;20094;-69
2021/01/09 09:14:16;;;;;;;;;;;;;;;;;;4375155;32;19974;-68
2021/01/09 09:16:41;;;;;;;;;;;;;;;;;;4362114;32;20062;-69
2021/01/09 09:19:10;;;;;;;;;;;;;;;;;;4374947;32;19988;-68
2021/01/09 09:21:45;;;;;;;;;;;;;;;;;;4376345;32;19986;-69
2021/01/09 09:24:11;;;;;;;;;;;;;;;;;;4350084;32;20045;-71
2021/01/09 09:26:36;;;;;;;;;;;;;;;;;;4379157;32;19986;-71
2021/01/09 09:29:02;;;;;;;;;;;;;;;;;;4377558;32;20112;-67
2021/01/09 09:31:32;;;;;;;;;;;;;;;;;;4377474;32;20353;-69
2021/01/09 09:33:59;;;;;;;;;;;;;;;;;;4376893;32;19974;-65
2021/01/09 09:36:26;;;;;;;;;;;;;;;;;;4364724;32;20010;-65
2021/01/09 09:38:52;;;;;;;;;;;;;;;;;;4352481;32;20357;-65
2021/01/09 09:41:17;;;;;;;;;;;;;;;;;;4377654;32;19967;-66
2021/01/09 09:43:52;;;;;;;;;;;;;;;;;;4352686;32;19982;-67
2021/01/09 09:46:18;;;;;;;;;;;;;;;;;;4376908;32;20356;-66
2021/01/09 09:48:44;;;;;;;;;;;;;;;;;;4386762;32;19974;-69
2021/01/09 09:51:10;;;;;;;;;;;;;;;;;;4379574;32;20045;-72
2021/01/09 09:53:35;;;;;;;;;;;;;;;;;;4367080;32;19993;-69
2021/01/09 09:56:14;;;;;;;;;;;;;;;;;;4392263;32;20394;-69
2021/01/09 09:58:40;;;;;;;;;;;;;;;;;;4379472;32;19977;-67
2021/01/09 10:01:27;;;;;;;;;;;;;;;;;;4379834;32;20155;-67
2021/01/09 10:03:52;;;;;;;;;;;;;;;;;;4391865;32;19974;-70
2021/01/09 10:06:18;;;;;;;;;;;;;;;;;;4392087;32;20041;-69
2021/01/09 10:08:44;;;;;;;;;;;;;;;;;;4391875;32;20024;-66
2021/01/09 10:11:09;;;;;;;;;;;;;;;;;;4391980;32;20069;-70
2021/01/09 10:13:35;;;;;;;;;;;;;;;;;;4393530;32;19973;-66
2021/01/09 10:16:00;;;;;;;;;;;;;;;;;;4392328;32;20385;-67
2021/01/09 10:18:26;;;;;;;;;;;;;;;;;;4393090;32;20066;-67
2021/01/09 10:20:52;;;;;;;;;;;;;;;;;;4379453;32;20057;-69
2021/01/09 10:23:17;;;;;;;;;;;;;;;;;;4393038;32;20372;-69
2021/01/09 10:25:43;;;;;;;;;;;;;;;;;;4391666;32;19993;-69
2021/01/09 10:28:09;;;;;;;;;;;;;;;;;;4379386;32;19970;-69
2021/01/09 10:30:34;;;;;;;;;;;;;;;;;;4393150;32;19978;-69
2021/01/09 10:33:00;;;;;;;;;;;;;;;;;;4376660;32;20005;-66
2021/01/09 10:35:25;;;;;;;;;;;;;;;;;;4376473;32;20447;-70
2021/01/09 10:37:51;;;;;;;;;;;;;;;;;;4377069;32;19990;-70
2021/01/09 10:40:17;;;;;;;;;;;;;;;;;;4376596;32;20352;-69
2021/01/09 10:42:42;;;;;;;;;;;;;;;;;;4376431;32;20061;-69
2021/01/09 10:45:08;;;;;;;;;;;;;;;;;;4364321;32;19978;-70
2021/01/09 10:47:34;;;;;;;;;;;;;;;;;;4381262;32;19978;-68
2021/01/09 10:49:59;;;;;;;;;;;;;;;;;;4392845;32;20061;-66
2021/01/09 10:52:26;;;;;;;;;;;;;;;;;;4391424;32;19989;-69
2021/01/09 10:54:52;;;;;;;;;;;;;;;;;;4392050;32;19993;-67
2021/01/09 10:57:17;;;;;;;;;;;;;;;;;;4392781;32;20062;-68
2021/01/09 10:59:43;;;;;;;;;;;;;;;;;;4392787;32;19978;-67
2021/01/09 11:02:08;;;;;;;;;;;;;;;;;;4378620;32;19981;-72
2021/01/09 11:04:34;;;;;;;;;;;;;;;;;;4379036;32;19984;-71
2021/01/09 11:06:59;;;;;;;;;;;;;;;;;;4378446;32;19989;-70
2021/01/09 11:09:25;;;;;;;;;;;;;;;;;;4391315;32;20001;-71
2021/01/09 11:11:51;;;;;;;;;;;;;;;;;;4391544;32;19989;-68
2021/01/09 11:14:17;;;;;;;;;;;;;;;;;;4366249;32;20452;-66
2021/01/09 11:16:42;;;;;;;;;;;;;;;;;;4390869;32;20367;-69
2021/01/09 11:19:09;;;;;;;;;;;;;;;;;;4392887;32;19985;-67
2021/01/09 11:21:34;;;;;;;;;;;;;;;;;;4378757;32;20055;-66
2021/01/09 11:24:00;;;;;;;;;;;;;;;;;;4392833;32;20383;-68
2021/01/09 11:26:26;;;;;;;;;;;;;;;;;;4391183;32;19990;-70
2021/01/09 11:28:52;;;;;;;;;;;;;;;;;;4378872;32;19973;-68
2021/01/09 11:31:17;;;;;;;;;;;;;;;;;;4390925;32;19994;-69
2021/01/09 11:33:43;;;;;;;;;;;;;;;;;;4380853;32;19990;-68
2021/01/09 11:36:09;;;;;;;;;;;;;;;;;;4375757;32;20040;-67
2021/01/09 11:38:34;;;;;;;;;;;;;;;;;;4375650;32;20463;-69
2021/01/09 11:41:01;;;;;;;;;;;;;;;;;;4363410;32;19989;-71
2021/01/09 11:43:26;;;;;;;;;;;;;;;;;;4363506;32;19978;-70
2021/01/09 11:45:52;;;;;;;;;;;;;;;;;;4377421;32;19977;-72
2021/01/09 11:48:17;;;;;;;;;;;;;;;;;;4375996;32;19970;-72
2021/01/09 11:50:43;;;;;;;;;;;;;;;;;;4377200;32;20051;-72
2021/01/09 11:53:09;;;;;;;;;;;;;;;;;;4375413;32;19997;-72
2021/01/09 11:55:34;;;;;;;;;;;;;;;;;;4376802;32;20008;-73
2021/01/09 11:58:00;;;;;;;;;;;;;;;;;;4375374;32;20002;-72
2021/01/09 12:00:25;;;;;;;;;;;;;;;;;;4377697;32;19982;-73
2021/01/09 12:02:51;;;;;;;;;;;;;;;;;;4375619;32;20073;-72
2021/01/09 12:05:16;;;;;;;;;;;;;;;;;;4375731;32;19974;-72
2021/01/09 12:07:42;;;;;;;;;;;;;;;;;;4375361;32;20502;-73
2021/01/09 12:10:08;;;;;;;;;;;;;;;;;;4376921;32;19982;-75
2021/01/09 12:12:34;;;;;;;;;;;;;;;;;;4363056;32;19985;-74
2021/01/09 12:15:00;;;;;;;;;;;;;;;;;;4363140;32;19993;-72
2021/01/09 12:17:25;;;;;;;;;;;;;;;;;;4362647;32;20376;-74
2021/01/09 12:19:51;;;;;;;;;;;;;;;;;;4362931;32;20353;-74
2021/01/09 12:22:17;;;;;;;;;;;;;;;;;;4363395;32;20064;-73
2021/01/09 12:24:42;;;;;;;;;;;;;;;;;;4362522;32;20396;-73
2021/01/09 12:27:09;;;;;;;;;;;;;;;;;;4377027;32;20427;-74
2021/01/09 12:29:34;;;;;;;;;;;;;;;;;;4375283;32;20000;-73
2021/01/09 12:32:00;;;;;;;;;;;;;;;;;;4376688;32;20365;-73
2021/01/09 12:34:26;;;;;;;;;;;;;;;;;;4390735;32;20379;-72
2021/01/09 12:36:52;;;;;;;;;;;;;;;;;;4365382;32;19977;-72
2021/01/09 12:39:17;;;;;;;;;;;;;;;;;;4390156;32;19993;-73
2021/01/09 12:41:43;;;;;;;;;;;;;;;;;;4378033;32;20461;-74
2021/01/09 12:44:09;;;;;;;;;;;;;;;;;;4390054;32;19977;-74
2021/01/09 12:46:42;;;;;;;;;;;;;;;;;;4377948;32;20407;-73
2021/01/09 12:49:11;;;;;;;;;;;;;;;;;;4365787;32;19981;-72
2021/01/09 12:51:37;;;;;;;;;;;;;;;;;;4362585;32;19972;-72
2021/01/09 12:54:03;;;;;;;;;;;;;;;;;;4375086;32;20042;-73
2021/01/09 12:56:32;;;;;;;;;;;;;;;;;;4374724;32;19985;-74
2021/01/09 12:58:58;;;;;;;;;;;;;;;;;;4362748;32;19970;-73
2021/01/09 13:01:30;;;;;;;;;;;;;;;;;;4377894;32;20054;-73
2021/01/09 13:03:56;;;;;;;;;;;;;;;;;;4352677;32;20409;-73
2021/01/09 13:06:22;;;;;;;;;;;;;;;;;;4365642;32;19989;-73
2021/01/09 13:08:48;;;;;;;;;;;;;;;;;;4365784;32;19980;-74
2021/01/09 13:11:15;;;;;;;;;;;;;;;;;;4379070;32;19986;-73
2021/01/09 13:13:40;;;;;;;;;;;;;;;;;;4365607;32;19981;-73
2021/01/09 13:16:06;;;;;;;;;;;;;;;;;;4379216;32;19993;-73
2021/01/09 13:18:31;;;;;;;;;;;;;;;;;;4365134;32;20053;-72
2021/01/09 13:20:57;;;;;;;;;;;;;;;;;;4378854;32;19978;-73
2021/01/09 13:23:22;;;;;;;;;;;;;;;;;;4377785;32;20427;-73
2021/01/09 13:25:48;;;;;;;;;;;;;;;;;;4365118;32;20001;-74
2021/01/09 13:28:14;;;;;;;;;;;;;;;;;;4378733;32;19978;-72
2021/01/09 13:30:39;;;;;;;;;;;;;;;;;;4377785;32;19985;-73
2021/01/09 13:33:05;;;;;;;;;;;;;;;;;;4377468;32;19982;-74
2021/01/09 13:35:31;;;;;;;;;;;;;;;;;;4377419;32;20356;-71
2021/01/09 13:37:56;;;;;;;;;;;;;;;;;;4378876;32;20050;-72
2021/01/09 13:40:22;;;;;;;;;;;;;;;;;;4390004;32;19997;-74
2021/01/09 13:42:47;;;;;;;;;;;;;;;;;;4377615;32;19985;-73
2021/01/09 13:45:13;;;;;;;;;;;;;;;;;;4364892;32;20071;-73
2021/01/09 13:47:39;;;;;;;;;;;;;;;;;;4380219;32;20041;-73
2021/01/09 13:50:05;;;;;;;;;;;;;;;;;;4367493;32;20383;-74
2021/01/09 13:52:30;;;;;;;;;;;;;;;;;;4392205;32;20020;-72
2021/01/09 13:54:56;;;;;;;;;;;;;;;;;;4393347;32;19986;-73
2021/01/09 13:57:21;;;;;;;;;;;;;;;;;;4393536;32;19977;-73
2021/01/09 13:59:47;;;;;;;;;;;;;;;;;;4379885;32;19993;-73
2021/01/09 14:02:12;;;;;;;;;;;;;;;;;;4379759;32;20453;-74
2021/01/09 14:04:38;;;;;;;;;;;;;;;;;;4391939;32;20066;-72
2021/01/09 14:07:04;;;;;;;;;;;;;;;;;;4393327;32;20000;-73
2021/01/09 14:09:29;;;;;;;;;;;;;;;;;;4379944;32;20389;-72
2021/01/09 14:11:55;;;;;;;;;;;;;;;;;;4391876;32;20035;-73
2021/01/09 14:14:20;;;;;;;;;;;;;;;;;;4392075;32;20100;-73
2021/01/09 14:16:46;;;;;;;;;;;;;;;;;;4393222;32;20373;-73
2021/01/09 14:19:11;;;;;;;;;;;;;;;;;;4379636;32;20000;-74
2021/01/09 14:21:37;;;;;;;;;;;;;;;;;;4392312;32;20008;-73
2021/01/09 14:24:03;;;;;;;;;;;;;;;;;;4392271;32;20439;-73
2021/01/09 14:26:29;;;;;;;;;;;;;;;;;;4392142;32;19996;-73
2021/01/09 14:28:55;;;;;;;;;;;;;;;;;;4379716;32;20032;-74
2021/01/09 14:31:20;;;;;;;;;;;;;;;;;;4380363;32;20066;-73
2021/01/09 14:33:46;;;;;;;;;;;;;;;;;;4382416;32;20391;-73
2021/01/09 14:36:21;;;;;;;;;;;;;;;;;;4365641;32;19981;-74
2021/01/09 14:38:46;;;;;;;;;;;;;;;;;;4377463;32;20391;-73
2021/01/09 14:41:13;;;;;;;;;;;;;;;;;;4377029;32;19978;-75
2021/01/09 14:43:38;;;;;;;;;;;;;;;;;;4377095;32;20071;-73
2021/01/09 14:46:04;;;;;;;;;;;;;;;;;;4376739;32;19982;-73
2021/01/09 14:48:29;;;;;;;;;;;;;;;;;;4386253;32;20384;-74
2021/01/09 14:50:55;;;;;;;;;;;;;;;;;;4393591;32;20388;-74
2021/01/09 14:53:22;;;;;;;;;;;;;;;;;;4394842;32;19974;-73
2021/01/09 14:55:48;;;;;;;;;;;;;;;;;;4393406;32;20049;-73
2021/01/09 14:58:13;;;;;;;;;;;;;;;;;;4379433;32;20070;-72
2021/01/09 15:00:39;;;;;;;;;;;;;;;;;;4391862;32;19982;-73
2021/01/09 15:03:05;;;;;;;;;;;;;;;;;;4391749;32;20336;-74
2021/01/09 15:05:33;;;;;;;;;;;;;;;;;;4391634;32;20048;-73
2021/01/09 15:07:59;;;;;;;;;;;;;;;;;;4366830;32;20119;-74
2021/01/09 15:10:24;;;;;;;;;;;;;;;;;;4391636;32;20016;-73
2021/01/09 15:12:50;;;;;;;;;;;;;;;;;;4392448;32;19978;-72
2021/01/09 15:15:16;;;;;;;;;;;;;;;;;;4391367;32;20466;-73
2021/01/09 15:17:41;;;;;;;;;;;;;;;;;;4378426;32;20065;-73
2021/01/09 15:20:07;;;;;;;;;;;;;;;;;;4391383;32;20021;-72
2021/01/09 15:22:32;;;;;;;;;;;;;;;;;;4390391;32;19977;-73
2021/01/09 15:24:58;;;;;;;;;;;;;;;;;;4378934;32;20069;-73
2021/01/09 15:27:24;;;;;;;;;;;;;;;;;;4390952;32;20468;-72
2021/01/09 15:29:49;;;;;;;;;;;;;;;;;;4378698;32;19983;-74
2021/01/09 15:32:15;;;;;;;;;;;;;;;;;;4391127;32;20005;-73
2021/01/09 15:34:40;;;;;;;;;;;;;;;;;;4392355;32;19993;-72
2021/01/09 15:37:06;;;;;;;;;;;;;;;;;;4379335;32;20101;-72
2021/01/09 15:39:31;;;;;;;;;;;;;;;;;;4379184;32;19997;-73
2021/01/09 15:41:57;;;;;;;;;;;;;;;;;;4390744;32;20425;-73
2021/01/09 15:44:23;;;;;;;;;;;;;;;;;;4395618;32;19978;-72
2021/01/09 15:46:49;;;;;;;;;;;;;;;;;;4390658;32;19972;-72
2021/01/09 15:49:21;;;;;;;;;;;;;;;;;;4365611;32;19978;-74
2021/01/09 15:51:50;;;;;;;;;;;;;;;;;;4363266;32;20061;-72
2021/01/09 15:54:17;;;;;;;;;;;;;;;;;;4363393;32;20411;-73
2021/01/09 15:56:42;;;;;;;;;;;;;;;;;;4375791;32;20038;-71
2021/01/09 15:59:08;;;;;;;;;;;;;;;;;;4363590;32;19989;-72
2021/01/09 16:01:35;;;;;;;;;;;;;;;;;;4363163;32;19970;-73
2021/01/09 16:04:01;;;;;;;;;;;;;;;;;;4375303;32;20360;-73
2021/01/09 16:06:27;;;;;;;;;;;;;;;;;;4376998;32;19989;-73
2021/01/09 16:08:52;;;;;;;;;;;;;;;;;;4350557;32;20001;-73
2021/01/09 16:11:22;;;;;;;;;;;;;;;;;;4363125;32;19974;-75
2021/01/09 16:13:51;;;;;;;;;;;;;;;;;;4362999;32;19977;-73
2021/01/09 16:16:20;;;;;;;;;;;;;;;;;;4363187;32;19998;-73
2021/01/09 16:18:46;;;;;;;;;;;;;;;;;;4375976;32;19966;-73
2021/01/09 16:21:11;;;;;;;;;;;;;;;;;;4363453;32;19980;-73
2021/01/09 16:23:40;;;;;;;;;;;;;;;;;;4375738;32;19977;-72
2021/01/09 16:26:06;;;;;;;;;;;;;;;;;;4363361;32;20403;-73
2021/01/09 16:28:31;;;;;;;;;;;;;;;;;;4362767;32;19986;-71
2021/01/09 16:30:57;;;;;;;;;;;;;;;;;;4375682;32;19974;-73
2021/01/09 16:33:23;;;;;;;;;;;;;;;;;;4383379;32;20359;-73
2021/01/09 16:35:49;;;;;;;;;;;;;;;;;;4395034;32;20356;-73
2021/01/09 16:38:15;;;;;;;;;;;;;;;;;;4381082;32;19980;-74
2021/01/09 16:40:40;;;;;;;;;;;;;;;;;;4368724;32;20068;-73